This is the latest recevied weather packets stored in our database for station/object JH5HTX-13. If no packets are shown the sender has not sent any weather packets the latest 1 day(s).
| Time | Temp. | Humidity | Pressure | Rain* | Wind** | Luminosity | Snow |
|---|---|---|---|---|---|---|---|
| 1836274685 | 30.56° C | 75% | 1008.8 hPa | 0 mm | 0 m/s | - | - |
| 1778041272 | 21.67° C | 70% | 1017.8 hPa | 0 mm | 0 m/s | - | - |
| 1778040372 | 21.67° C | 69% | 1018.1 hPa | 0 mm | 0 m/s | - | - |
| 1778039472 | 21.11° C | 69% | 1018.2 hPa | 0 mm | 0 m/s | - | - |
| 1778038572 | 21.11° C | 69% | 1018.3 hPa | 0 mm | 0 m/s | - | - |
| 1778037672 | 20.56° C | 70% | 1018.4 hPa | 0 mm | 0 m/s | - | - |
| 1778036772 | 20.56° C | 70% | 1018.8 hPa | 0 mm | 0 m/s | - | - |
| 1778035872 | 20° C | 70% | 1018.9 hPa | 0 mm | 0 m/s | - | - |
| 1778034972 | 20° C | 70% | 1018.9 hPa | 0 mm | 0 m/s | - | - |
| 1778034072 | 19.44° C | 71% | 1019.5 hPa | 0 mm | 0 m/s | - | - |
| 1778033172 | 19.44° C | 72% | 1019.4 hPa | 0 mm | 0 m/s | - | - |
| 1778032271 | 18.89° C | 72% | 1019.5 hPa | 0 mm | 0 m/s | - | - |
| 1778031371 | 18.89° C | 70% | 1019.8 hPa | 0 mm | 0 m/s | - | - |
| 1778030471 | 18.89° C | 68% | 1019.9 hPa | 0 mm | 0 m/s | - | - |
| 1778029571 | 18.33° C | 70% | 1020 hPa | 0 mm | 0 m/s | - | - |
| 1778028671 | 17.78° C | 70% | 1020.1 hPa | 0 mm | 0 m/s | - | - |
| 1778027771 | 17.78° C | 70% | 1020.1 hPa | 0 mm | 0 m/s | - | - |
| 1778026871 | 17.22° C | 72% | 1020.1 hPa | 0 mm | 0 m/s | - | - |
| 1778025971 | 16.67° C | 73% | 1020.1 hPa | 0 mm | 0 m/s | - | - |
| 1778025071 | 16.67° C | 75% | 1020.1 hPa | 0 mm | 0 m/s | - | - |
| 1778024171 | 16.11° C | 76% | 1020.4 hPa | 0 mm | 0 m/s | - | - |
| 1778023270 | 15.56° C | 77% | 1020.7 hPa | 0 mm | 0 m/s | - | - |
| 1778022370 | 15° C | 78% | 1020.5 hPa | 0 mm | 0 m/s | - | - |
| 1778021470 | 14.44° C | 81% | 1020.6 hPa | 0 mm | 0 m/s | - | - |
| 1778020570 | 13.89° C | 83% | 1020.6 hPa | 0 mm | 0 m/s | - | - |
* Rain latest hour (hover to see other rain measurements)
** Current wind speed in m/s (hover to see current wind gust speed)